sensor_id;sensor_type;location;lat;lon;timestamp;P1;durP1;ratioP1;P2;durP2;ratioP2
36191;SDS011;22233;42.708;23.360;2024-02-21T00:02:02;6.75;;;5.72;;
36191;SDS011;22233;42.708;23.360;2024-02-21T00:04:27;6.03;;;4.97;;
36191;SDS011;22233;42.708;23.360;2024-02-21T00:06:53;6.95;;;5.40;;
36191;SDS011;22233;42.708;23.360;2024-02-21T00:09:19;6.78;;;5.68;;
36191;SDS011;22233;42.708;23.360;2024-02-21T00:11:45;6.93;;;5.65;;
36191;SDS011;22233;42.708;23.360;2024-02-21T00:14:10;6.18;;;4.93;;
36191;SDS011;22233;42.708;23.360;2024-02-21T00:16:36;7.63;;;5.70;;
36191;SDS011;22233;42.708;23.360;2024-02-21T00:19:01;7.47;;;5.53;;
36191;SDS011;22233;42.708;23.360;2024-02-21T00:21:26;7.55;;;5.45;;
36191;SDS011;22233;42.708;23.360;2024-02-21T00:23:52;7.05;;;5.30;;
36191;SDS011;22233;42.708;23.360;2024-02-21T00:26:17;6.53;;;5.60;;
36191;SDS011;22233;42.708;23.360;2024-02-21T00:28:43;6.93;;;5.65;;
36191;SDS011;22233;42.708;23.360;2024-02-21T00:31:08;7.82;;;5.32;;
36191;SDS011;22233;42.708;23.360;2024-02-21T00:33:33;6.55;;;5.30;;
36191;SDS011;22233;42.708;23.360;2024-02-21T00:35:59;6.82;;;5.38;;
36191;SDS011;22233;42.708;23.360;2024-02-21T00:38:24;6.03;;;5.43;;
36191;SDS011;22233;42.708;23.360;2024-02-21T00:40:50;7.10;;;5.85;;
36191;SDS011;22233;42.708;23.360;2024-02-21T00:43:15;5.93;;;5.30;;
36191;SDS011;22233;42.708;23.360;2024-02-21T00:45:40;5.78;;;4.97;;
36191;SDS011;22233;42.708;23.360;2024-02-21T00:48:06;5.68;;;4.85;;
36191;SDS011;22233;42.708;23.360;2024-02-21T00:50:31;5.78;;;5.15;;
36191;SDS011;22233;42.708;23.360;2024-02-21T00:52:57;7.13;;;5.10;;
36191;SDS011;22233;42.708;23.360;2024-02-21T00:55:23;6.75;;;5.05;;
36191;SDS011;22233;42.708;23.360;2024-02-21T00:57:48;5.72;;;5.10;;
36191;SDS011;22233;42.708;23.360;2024-02-21T01:00:14;5.13;;;4.50;;
36191;SDS011;22233;42.708;23.360;2024-02-21T01:02:39;5.10;;;4.60;;
36191;SDS011;22233;42.708;23.360;2024-02-21T01:05:05;5.30;;;4.75;;
36191;SDS011;22233;42.708;23.360;2024-02-21T01:07:30;6.30;;;4.57;;
36191;SDS011;22233;42.708;23.360;2024-02-21T01:09:56;5.80;;;5.20;;
36191;SDS011;22233;42.708;23.360;2024-02-21T01:12:21;5.80;;;4.38;;
36191;SDS011;22233;42.708;23.360;2024-02-21T01:14:46;4.80;;;4.20;;
36191;SDS011;22233;42.708;23.360;2024-02-21T01:17:12;4.47;;;4.03;;
36191;SDS011;22233;42.708;23.360;2024-02-21T01:19:38;5.68;;;4.85;;
36191;SDS011;22233;42.708;23.360;2024-02-21T01:22:03;5.82;;;4.38;;
36191;SDS011;22233;42.708;23.360;2024-02-21T01:24:29;5.80;;;4.65;;
36191;SDS011;22233;42.708;23.360;2024-02-21T01:26:54;5.07;;;3.97;;
36191;SDS011;22233;42.708;23.360;2024-02-21T01:29:20;8.98;;;4.22;;
36191;SDS011;22233;42.708;23.360;2024-02-21T01:31:45;5.47;;;4.65;;
36191;SDS011;22233;42.708;23.360;2024-02-21T01:34:12;4.80;;;4.30;;
36191;SDS011;22233;42.708;23.360;2024-02-21T01:36:37;5.97;;;5.28;;
36191;SDS011;22233;42.708;23.360;2024-02-21T01:39:03;5.65;;;4.95;;
36191;SDS011;22233;42.708;23.360;2024-02-21T01:41:31;6.10;;;5.00;;
36191;SDS011;22233;42.708;23.360;2024-02-21T01:43:57;5.32;;;4.43;;
36191;SDS011;22233;42.708;23.360;2024-02-21T01:46:23;5.05;;;4.55;;
36191;SDS011;22233;42.708;23.360;2024-02-21T01:48:52;7.43;;;5.50;;
36191;SDS011;22233;42.708;23.360;2024-02-21T01:51:18;6.45;;;5.43;;
36191;SDS011;22233;42.708;23.360;2024-02-21T01:53:44;6.85;;;4.85;;
36191;SDS011;22233;42.708;23.360;2024-02-21T01:56:11;6.32;;;5.43;;
36191;SDS011;22233;42.708;23.360;2024-02-21T01:58:37;5.63;;;5.00;;
36191;SDS011;22233;42.708;23.360;2024-02-21T02:01:05;5.22;;;4.70;;
36191;SDS011;22233;42.708;23.360;2024-02-21T02:03:31;5.60;;;4.72;;
36191;SDS011;22233;42.708;23.360;2024-02-21T02:05:57;6.18;;;5.13;;
36191;SDS011;22233;42.708;23.360;2024-02-21T02:08:22;5.28;;;4.78;;
36191;SDS011;22233;42.708;23.360;2024-02-21T02:10:48;6.72;;;5.43;;
36191;SDS011;22233;42.708;23.360;2024-02-21T02:13:13;6.85;;;5.53;;
36191;SDS011;22233;42.708;23.360;2024-02-21T02:15:42;5.90;;;4.80;;
36191;SDS011;22233;42.708;23.360;2024-02-21T02:18:10;5.38;;;4.43;;
36191;SDS011;22233;42.708;23.360;2024-02-21T02:20:36;6.45;;;5.78;;
36191;SDS011;22233;42.708;23.360;2024-02-21T02:25:36;7.68;;;6.22;;
36191;SDS011;22233;42.708;23.360;2024-02-21T02:28:03;7.90;;;6.60;;
36191;SDS011;22233;42.708;23.360;2024-02-21T02:30:31;6.83;;;5.83;;
36191;SDS011;22233;42.708;23.360;2024-02-21T02:32:58;7.97;;;6.32;;
36191;SDS011;22233;42.708;23.360;2024-02-21T02:35:23;8.15;;;6.68;;
36191;SDS011;22233;42.708;23.360;2024-02-21T02:37:49;7.05;;;6.30;;
36191;SDS011;22233;42.708;23.360;2024-02-21T02:40:15;8.88;;;7.63;;
36191;SDS011;22233;42.708;23.360;2024-02-21T02:42:40;9.27;;;7.28;;
36191;SDS011;22233;42.708;23.360;2024-02-21T02:45:06;9.18;;;7.10;;
36191;SDS011;22233;42.708;23.360;2024-02-21T02:47:31;7.75;;;6.75;;
36191;SDS011;22233;42.708;23.360;2024-02-21T02:52:24;10.32;;;7.57;;
36191;SDS011;22233;42.708;23.360;2024-02-21T02:54:50;9.52;;;7.53;;
36191;SDS011;22233;42.708;23.360;2024-02-21T02:57:17;12.35;;;7.97;;
36191;SDS011;22233;42.708;23.360;2024-02-21T02:59:46;8.25;;;7.25;;
36191;SDS011;22233;42.708;23.360;2024-02-21T03:02:15;9.15;;;7.53;;
36191;SDS011;22233;42.708;23.360;2024-02-21T03:04:41;8.70;;;7.13;;
36191;SDS011;22233;42.708;23.360;2024-02-21T03:07:06;8.40;;;7.45;;
36191;SDS011;22233;42.708;23.360;2024-02-21T03:09:32;7.43;;;6.60;;
36191;SDS011;22233;42.708;23.360;2024-02-21T03:11:57;7.03;;;6.32;;
36191;SDS011;22233;42.708;23.360;2024-02-21T03:14:27;8.02;;;6.72;;
36191;SDS011;22233;42.708;23.360;2024-02-21T03:16:59;8.57;;;7.50;;
36191;SDS011;22233;42.708;23.360;2024-02-21T03:19:25;8.38;;;7.35;;
36191;SDS011;22233;42.708;23.360;2024-02-21T03:21:51;9.25;;;7.32;;
36191;SDS011;22233;42.708;23.360;2024-02-21T03:24:16;10.45;;;7.90;;
36191;SDS011;22233;42.708;23.360;2024-02-21T03:26:42;10.10;;;7.70;;
36191;SDS011;22233;42.708;23.360;2024-02-21T03:29:07;9.18;;;7.45;;
36191;SDS011;22233;42.708;23.360;2024-02-21T03:31:36;10.40;;;8.38;;
36191;SDS011;22233;42.708;23.360;2024-02-21T03:34:02;10.27;;;8.30;;
36191;SDS011;22233;42.708;23.360;2024-02-21T03:36:28;10.93;;;8.98;;
36191;SDS011;22233;42.708;23.360;2024-02-21T03:38:54;10.63;;;9.00;;
36191;SDS011;22233;42.708;23.360;2024-02-21T03:41:20;10.60;;;8.65;;
36191;SDS011;22233;42.708;23.360;2024-02-21T03:43:45;10.95;;;8.68;;
36191;SDS011;22233;42.708;23.360;2024-02-21T03:46:11;10.60;;;9.50;;
36191;SDS011;22233;42.708;23.360;2024-02-21T03:48:36;9.90;;;8.27;;
36191;SDS011;22233;42.708;23.360;2024-02-21T03:51:02;9.90;;;8.52;;
36191;SDS011;22233;42.708;23.360;2024-02-21T03:53:27;10.50;;;8.85;;
36191;SDS011;22233;42.708;23.360;2024-02-21T03:55:53;10.80;;;9.32;;
36191;SDS011;22233;42.708;23.360;2024-02-21T03:58:19;9.80;;;8.25;;
36191;SDS011;22233;42.708;23.360;2024-02-21T04:00:45;11.20;;;8.93;;
36191;SDS011;22233;42.708;23.360;2024-02-21T04:03:10;13.40;;;9.10;;
36191;SDS011;22233;42.708;23.360;2024-02-21T04:05:35;10.68;;;9.30;;
36191;SDS011;22233;42.708;23.360;2024-02-21T04:08:03;10.98;;;9.73;;
36191;SDS011;22233;42.708;23.360;2024-02-21T04:10:30;11.35;;;9.52;;
36191;SDS011;22233;42.708;23.360;2024-02-21T04:12:55;13.40;;;10.60;;
36191;SDS011;22233;42.708;23.360;2024-02-21T04:15:20;12.70;;;10.20;;
36191;SDS011;22233;42.708;23.360;2024-02-21T04:17:46;12.10;;;10.07;;
36191;SDS011;22233;42.708;23.360;2024-02-21T04:20:15;11.82;;;8.98;;
36191;SDS011;22233;42.708;23.360;2024-02-21T04:22:44;12.52;;;9.80;;
36191;SDS011;22233;42.708;23.360;2024-02-21T04:25:09;10.45;;;8.82;;
36191;SDS011;22233;42.708;23.360;2024-02-21T04:27:36;11.95;;;9.43;;
36191;SDS011;22233;42.708;23.360;2024-02-21T04:30:02;11.57;;;10.00;;
36191;SDS011;22233;42.708;23.360;2024-02-21T04:32:28;12.00;;;9.68;;
36191;SDS011;22233;42.708;23.360;2024-02-21T04:34:53;11.60;;;9.95;;
36191;SDS011;22233;42.708;23.360;2024-02-21T04:37:18;12.70;;;9.80;;
36191;SDS011;22233;42.708;23.360;2024-02-21T04:39:45;12.93;;;9.70;;
36191;SDS011;22233;42.708;23.360;2024-02-21T04:42:11;11.68;;;9.70;;
36191;SDS011;22233;42.708;23.360;2024-02-21T04:44:36;12.52;;;10.27;;
36191;SDS011;22233;42.708;23.360;2024-02-21T04:47:03;12.52;;;10.50;;
36191;SDS011;22233;42.708;23.360;2024-02-21T04:49:29;13.10;;;9.63;;
36191;SDS011;22233;42.708;23.360;2024-02-21T04:51:54;14.07;;;10.32;;
36191;SDS011;22233;42.708;23.360;2024-02-21T04:54:20;12.38;;;10.65;;
36191;SDS011;22233;42.708;23.360;2024-02-21T04:56:45;12.27;;;10.52;;
36191;SDS011;22233;42.708;23.360;2024-02-21T04:59:11;12.98;;;11.25;;
36191;SDS011;22233;42.708;23.360;2024-02-21T05:01:36;14.65;;;11.68;;
36191;SDS011;22233;42.708;23.360;2024-02-21T05:04:01;13.57;;;10.75;;
36191;SDS011;22233;42.708;23.360;2024-02-21T05:06:27;13.30;;;10.98;;
36191;SDS011;22233;42.708;23.360;2024-02-21T05:08:53;13.43;;;11.38;;
36191;SDS011;22233;42.708;23.360;2024-02-21T05:11:20;13.65;;;10.45;;
36191;SDS011;22233;42.708;23.360;2024-02-21T05:13:46;14.05;;;11.05;;
36191;SDS011;22233;42.708;23.360;2024-02-21T05:16:11;12.77;;;10.55;;
36191;SDS011;22233;42.708;23.360;2024-02-21T05:18:36;14.48;;;9.40;;
36191;SDS011;22233;42.708;23.360;2024-02-21T05:21:02;11.27;;;9.55;;
36191;SDS011;22233;42.708;23.360;2024-02-21T05:23:27;12.73;;;10.52;;
36191;SDS011;22233;42.708;23.360;2024-02-21T05:25:52;12.20;;;10.90;;
36191;SDS011;22233;42.708;23.360;2024-02-21T05:28:18;14.02;;;11.18;;
36191;SDS011;22233;42.708;23.360;2024-02-21T05:30:43;14.32;;;11.43;;
36191;SDS011;22233;42.708;23.360;2024-02-21T05:33:09;14.50;;;11.68;;
36191;SDS011;22233;42.708;23.360;2024-02-21T05:35:34;15.25;;;12.35;;
36191;SDS011;22233;42.708;23.360;2024-02-21T05:38:01;16.17;;;12.77;;
36191;SDS011;22233;42.708;23.360;2024-02-21T05:40:29;14.52;;;12.43;;
36191;SDS011;22233;42.708;23.360;2024-02-21T05:42:54;16.73;;;13.07;;
36191;SDS011;22233;42.708;23.360;2024-02-21T05:45:20;15.25;;;12.07;;
36191;SDS011;22233;42.708;23.360;2024-02-21T05:47:45;14.40;;;11.77;;
36191;SDS011;22233;42.708;23.360;2024-02-21T05:50:10;14.82;;;12.63;;
36191;SDS011;22233;42.708;23.360;2024-02-21T05:52:36;16.58;;;12.63;;
36191;SDS011;22233;42.708;23.360;2024-02-21T05:55:01;19.60;;;14.57;;
36191;SDS011;22233;42.708;23.360;2024-02-21T05:57:28;20.55;;;15.18;;
36191;SDS011;22233;42.708;23.360;2024-02-21T05:59:53;18.92;;;14.85;;
36191;SDS011;22233;42.708;23.360;2024-02-21T06:02:18;18.25;;;14.88;;
36191;SDS011;22233;42.708;23.360;2024-02-21T06:04:44;19.73;;;15.45;;
36191;SDS011;22233;42.708;23.360;2024-02-21T06:07:11;19.83;;;15.75;;
36191;SDS011;22233;42.708;23.360;2024-02-21T06:09:36;18.05;;;15.13;;
36191;SDS011;22233;42.708;23.360;2024-02-21T06:12:02;21.45;;;17.05;;
36191;SDS011;22233;42.708;23.360;2024-02-21T06:14:27;21.50;;;16.33;;
36191;SDS011;22233;42.708;23.360;2024-02-21T06:16:53;20.52;;;16.60;;
36191;SDS011;22233;42.708;23.360;2024-02-21T06:19:18;23.60;;;16.83;;
36191;SDS011;22233;42.708;23.360;2024-02-21T06:21:43;26.30;;;18.05;;
36191;SDS011;22233;42.708;23.360;2024-02-21T06:24:09;25.27;;;16.88;;
36191;SDS011;22233;42.708;23.360;2024-02-21T06:26:34;25.25;;;18.25;;
36191;SDS011;22233;42.708;23.360;2024-02-21T06:28:59;22.50;;;15.90;;
36191;SDS011;22233;42.708;23.360;2024-02-21T06:31:25;25.33;;;13.75;;
36191;SDS011;22233;42.708;23.360;2024-02-21T06:33:50;19.30;;;13.18;;
36191;SDS011;22233;42.708;23.360;2024-02-21T06:36:16;16.02;;;12.10;;
36191;SDS011;22233;42.708;23.360;2024-02-21T06:38:42;16.42;;;12.35;;
36191;SDS011;22233;42.708;23.360;2024-02-21T06:41:14;15.93;;;11.52;;
36191;SDS011;22233;42.708;23.360;2024-02-21T06:43:44;13.25;;;11.63;;
36191;SDS011;22233;42.708;23.360;2024-02-21T06:46:10;16.13;;;11.68;;
36191;SDS011;22233;42.708;23.360;2024-02-21T06:48:36;16.52;;;12.27;;
36191;SDS011;22233;42.708;23.360;2024-02-21T06:51:01;16.98;;;14.10;;
36191;SDS011;22233;42.708;23.360;2024-02-21T06:53:28;20.80;;;15.75;;
36191;SDS011;22233;42.708;23.360;2024-02-21T06:55:53;21.08;;;15.25;;
36191;SDS011;22233;42.708;23.360;2024-02-21T06:58:19;17.52;;;13.73;;
36191;SDS011;22233;42.708;23.360;2024-02-21T07:00:44;17.52;;;13.57;;
36191;SDS011;22233;42.708;23.360;2024-02-21T07:03:09;18.27;;;13.50;;
36191;SDS011;22233;42.708;23.360;2024-02-21T07:05:35;16.23;;;13.13;;
36191;SDS011;22233;42.708;23.360;2024-02-21T07:08:00;17.20;;;13.68;;
36191;SDS011;22233;42.708;23.360;2024-02-21T07:10:26;15.85;;;12.85;;
36191;SDS011;22233;42.708;23.360;2024-02-21T07:15:19;16.33;;;12.75;;
36191;SDS011;22233;42.708;23.360;2024-02-21T07:17:44;17.70;;;12.57;;
36191;SDS011;22233;42.708;23.360;2024-02-21T07:20:10;15.50;;;12.68;;
36191;SDS011;22233;42.708;23.360;2024-02-21T07:22:35;17.20;;;14.50;;
36191;SDS011;22233;42.708;23.360;2024-02-21T07:25:01;16.13;;;13.40;;
36191;SDS011;22233;42.708;23.360;2024-02-21T07:27:26;18.80;;;13.15;;
36191;SDS011;22233;42.708;23.360;2024-02-21T07:29:55;17.90;;;13.25;;
36191;SDS011;22233;42.708;23.360;2024-02-21T07:32:21;14.63;;;12.13;;
36191;SDS011;22233;42.708;23.360;2024-02-21T07:34:46;15.60;;;12.18;;
36191;SDS011;22233;42.708;23.360;2024-02-21T07:37:12;15.82;;;12.65;;
36191;SDS011;22233;42.708;23.360;2024-02-21T07:39:37;16.30;;;13.45;;
36191;SDS011;22233;42.708;23.360;2024-02-21T07:42:02;16.90;;;13.40;;
36191;SDS011;22233;42.708;23.360;2024-02-21T07:44:28;20.75;;;14.13;;
36191;SDS011;22233;42.708;23.360;2024-02-21T07:46:53;18.05;;;13.68;;
36191;SDS011;22233;42.708;23.360;2024-02-21T07:49:19;16.42;;;12.60;;
36191;SDS011;22233;42.708;23.360;2024-02-21T07:51:44;15.77;;;11.77;;
36191;SDS011;22233;42.708;23.360;2024-02-21T07:54:09;20.35;;;13.38;;
36191;SDS011;22233;42.708;23.360;2024-02-21T07:56:35;16.15;;;12.55;;
36191;SDS011;22233;42.708;23.360;2024-02-21T07:59:00;18.98;;;12.88;;
36191;SDS011;22233;42.708;23.360;2024-02-21T08:01:25;18.00;;;12.30;;
36191;SDS011;22233;42.708;23.360;2024-02-21T08:03:51;15.55;;;12.15;;
36191;SDS011;22233;42.708;23.360;2024-02-21T08:06:16;20.40;;;13.20;;
36191;SDS011;22233;42.708;23.360;2024-02-21T08:08:42;19.13;;;13.85;;
36191;SDS011;22233;42.708;23.360;2024-02-21T08:11:07;17.00;;;13.35;;
36191;SDS011;22233;42.708;23.360;2024-02-21T08:13:32;19.85;;;14.65;;
36191;SDS011;22233;42.708;23.360;2024-02-21T08:15:58;17.98;;;13.20;;
36191;SDS011;22233;42.708;23.360;2024-02-21T08:18:23;15.82;;;13.00;;
36191;SDS011;22233;42.708;23.360;2024-02-21T08:20:48;15.10;;;12.98;;
36191;SDS011;22233;42.708;23.360;2024-02-21T08:23:18;17.95;;;13.52;;
36191;SDS011;22233;42.708;23.360;2024-02-21T08:25:44;17.98;;;12.98;;
36191;SDS011;22233;42.708;23.360;2024-02-21T08:28:09;15.35;;;12.38;;
36191;SDS011;22233;42.708;23.360;2024-02-21T08:30:34;17.58;;;12.68;;
36191;SDS011;22233;42.708;23.360;2024-02-21T08:33:00;14.45;;;11.13;;
36191;SDS011;22233;42.708;23.360;2024-02-21T08:35:25;13.95;;;11.82;;
36191;SDS011;22233;42.708;23.360;2024-02-21T08:37:50;16.55;;;12.38;;
36191;SDS011;22233;42.708;23.360;2024-02-21T08:40:16;15.52;;;12.23;;
36191;SDS011;22233;42.708;23.360;2024-02-21T08:42:46;16.40;;;12.57;;
36191;SDS011;22233;42.708;23.360;2024-02-21T08:45:12;18.88;;;13.32;;
36191;SDS011;22233;42.708;23.360;2024-02-21T08:47:40;17.40;;;11.27;;
36191;SDS011;22233;42.708;23.360;2024-02-21T08:50:06;16.27;;;11.73;;
36191;SDS011;22233;42.708;23.360;2024-02-21T08:52:32;16.15;;;12.63;;
36191;SDS011;22233;42.708;23.360;2024-02-21T08:54:57;15.32;;;12.85;;
36191;SDS011;22233;42.708;23.360;2024-02-21T08:57:23;16.23;;;12.48;;
36191;SDS011;22233;42.708;23.360;2024-02-21T08:59:48;14.18;;;12.68;;
36191;SDS011;22233;42.708;23.360;2024-02-21T09:02:14;15.27;;;11.63;;
36191;SDS011;22233;42.708;23.360;2024-02-21T09:04:41;14.75;;;10.85;;
36191;SDS011;22233;42.708;23.360;2024-02-21T09:07:06;14.55;;;11.45;;
36191;SDS011;22233;42.708;23.360;2024-02-21T09:09:32;15.13;;;12.30;;
36191;SDS011;22233;42.708;23.360;2024-02-21T09:11:58;15.40;;;12.93;;
36191;SDS011;22233;42.708;23.360;2024-02-21T09:14:30;14.77;;;12.77;;
36191;SDS011;22233;42.708;23.360;2024-02-21T09:16:56;14.45;;;11.60;;
36191;SDS011;22233;42.708;23.360;2024-02-21T09:19:21;15.15;;;11.48;;
36191;SDS011;22233;42.708;23.360;2024-02-21T09:21:47;13.15;;;11.32;;
36191;SDS011;22233;42.708;23.360;2024-02-21T09:24:12;13.27;;;11.27;;
36191;SDS011;22233;42.708;23.360;2024-02-21T09:26:38;13.48;;;11.63;;
36191;SDS011;22233;42.708;23.360;2024-02-21T09:29:04;12.88;;;10.60;;
36191;SDS011;22233;42.708;23.360;2024-02-21T09:31:29;16.67;;;12.05;;
36191;SDS011;22233;42.708;23.360;2024-02-21T09:33:54;13.70;;;10.90;;
36191;SDS011;22233;42.708;23.360;2024-02-21T09:36:20;16.05;;;12.70;;
36191;SDS011;22233;42.708;23.360;2024-02-21T09:38:46;15.43;;;11.23;;
36191;SDS011;22233;42.708;23.360;2024-02-21T09:41:15;12.85;;;10.70;;
36191;SDS011;22233;42.708;23.360;2024-02-21T09:43:45;11.90;;;10.15;;
36191;SDS011;22233;42.708;23.360;2024-02-21T09:46:17;11.30;;;10.00;;
36191;SDS011;22233;42.708;23.360;2024-02-21T09:54:00;13.73;;;9.98;;
36191;SDS011;22233;42.708;23.360;2024-02-21T09:56:26;11.77;;;10.35;;
36191;SDS011;22233;42.708;23.360;2024-02-21T09:58:51;13.02;;;9.55;;
36191;SDS011;22233;42.708;23.360;2024-02-21T10:01:16;11.15;;;9.57;;
36191;SDS011;22233;42.708;23.360;2024-02-21T10:03:42;11.40;;;9.63;;
36191;SDS011;22233;42.708;23.360;2024-02-21T10:06:08;10.90;;;9.77;;
36191;SDS011;22233;42.708;23.360;2024-02-21T10:08:34;10.77;;;9.68;;
36191;SDS011;22233;42.708;23.360;2024-02-21T10:10:59;11.43;;;9.57;;
36191;SDS011;22233;42.708;23.360;2024-02-21T10:13:27;9.10;;;8.13;;
36191;SDS011;22233;42.708;23.360;2024-02-21T10:16:04;12.50;;;9.82;;
36191;SDS011;22233;42.708;23.360;2024-02-21T10:18:36;10.07;;;7.97;;
36191;SDS011;22233;42.708;23.360;2024-02-21T10:21:05;14.57;;;9.05;;
36191;SDS011;22233;42.708;23.360;2024-02-21T10:23:44;11.65;;;8.90;;
36191;SDS011;22233;42.708;23.360;2024-02-21T10:26:11;9.73;;;8.73;;
36191;SDS011;22233;42.708;23.360;2024-02-21T10:28:37;11.27;;;9.50;;
36191;SDS011;22233;42.708;23.360;2024-02-21T10:31:07;9.25;;;7.97;;
36191;SDS011;22233;42.708;23.360;2024-02-21T10:33:34;10.80;;;9.18;;
36191;SDS011;22233;42.708;23.360;2024-02-21T10:36:06;10.63;;;8.65;;
36191;SDS011;22233;42.708;23.360;2024-02-21T10:38:38;12.43;;;8.45;;
36191;SDS011;22233;42.708;23.360;2024-02-21T10:41:07;9.13;;;8.02;;
36191;SDS011;22233;42.708;23.360;2024-02-21T10:43:39;8.63;;;7.43;;
36191;SDS011;22233;42.708;23.360;2024-02-21T10:46:06;8.65;;;6.93;;
36191;SDS011;22233;42.708;23.360;2024-02-21T10:48:42;8.27;;;6.28;;
36191;SDS011;22233;42.708;23.360;2024-02-21T10:56:32;6.47;;;5.18;;
36191;SDS011;22233;42.708;23.360;2024-02-21T10:59:05;6.15;;;5.15;;
36191;SDS011;22233;42.708;23.360;2024-02-21T11:01:31;7.70;;;5.18;;
36191;SDS011;22233;42.708;23.360;2024-02-21T11:04:06;8.38;;;5.82;;
36191;SDS011;22233;42.708;23.360;2024-02-21T11:06:34;8.82;;;6.00;;
36191;SDS011;22233;42.708;23.360;2024-02-21T11:11:33;4.95;;;4.47;;
36191;SDS011;22233;42.708;23.360;2024-02-21T11:16:37;5.20;;;4.70;;
36191;SDS011;22233;42.708;23.360;2024-02-21T11:19:07;5.63;;;4.72;;
36191;SDS011;22233;42.708;23.360;2024-02-21T11:21:35;5.60;;;4.68;;
36191;SDS011;22233;42.708;23.360;2024-02-21T11:24:02;5.00;;;4.28;;
36191;SDS011;22233;42.708;23.360;2024-02-21T11:26:30;5.38;;;4.85;;
36191;SDS011;22233;42.708;23.360;2024-02-21T11:29:02;5.63;;;4.30;;
36191;SDS011;22233;42.708;23.360;2024-02-21T11:31:42;4.53;;;4.13;;
36191;SDS011;22233;42.708;23.360;2024-02-21T11:34:09;6.90;;;4.35;;
36191;SDS011;22233;42.708;23.360;2024-02-21T11:36:35;5.30;;;4.30;;
36191;SDS011;22233;42.708;23.360;2024-02-21T11:39:04;5.35;;;4.20;;
36191;SDS011;22233;42.708;23.360;2024-02-21T11:41:30;5.82;;;4.15;;
36191;SDS011;22233;42.708;23.360;2024-02-21T11:43:56;5.22;;;4.50;;
36191;SDS011;22233;42.708;23.360;2024-02-21T11:46:21;6.78;;;4.90;;
36191;SDS011;22233;42.708;23.360;2024-02-21T11:48:48;5.25;;;4.75;;
36191;SDS011;22233;42.708;23.360;2024-02-21T11:51:22;6.45;;;5.10;;
36191;SDS011;22233;42.708;23.360;2024-02-21T11:53:51;6.07;;;4.82;;
36191;SDS011;22233;42.708;23.360;2024-02-21T11:56:17;6.45;;;4.63;;
36191;SDS011;22233;42.708;23.360;2024-02-21T11:58:45;6.40;;;4.72;;
36191;SDS011;22233;42.708;23.360;2024-02-21T12:01:11;6.55;;;4.72;;
36191;SDS011;22233;42.708;23.360;2024-02-21T12:03:36;7.40;;;4.10;;
36191;SDS011;22233;42.708;23.360;2024-02-21T12:06:02;5.40;;;4.55;;
36191;SDS011;22233;42.708;23.360;2024-02-21T12:08:28;5.45;;;4.45;;
36191;SDS011;22233;42.708;23.360;2024-02-21T12:11:15;5.45;;;4.85;;
36191;SDS011;22233;42.708;23.360;2024-02-21T12:14:01;5.88;;;4.78;;
36191;SDS011;22233;42.708;23.360;2024-02-21T12:16:31;6.60;;;4.28;;
36191;SDS011;22233;42.708;23.360;2024-02-21T12:18:57;4.75;;;4.15;;
36191;SDS011;22233;42.708;23.360;2024-02-21T12:21:24;6.37;;;5.10;;
36191;SDS011;22233;42.708;23.360;2024-02-21T12:23:50;8.45;;;5.65;;
36191;SDS011;22233;42.708;23.360;2024-02-21T12:26:16;6.82;;;4.60;;
36191;SDS011;22233;42.708;23.360;2024-02-21T12:28:41;6.57;;;5.03;;
36191;SDS011;22233;42.708;23.360;2024-02-21T12:31:07;4.75;;;4.28;;
36191;SDS011;22233;42.708;23.360;2024-02-21T12:33:32;6.22;;;5.45;;
36191;SDS011;22233;42.708;23.360;2024-02-21T12:35:58;5.40;;;4.68;;
36191;SDS011;22233;42.708;23.360;2024-02-21T12:38:23;8.88;;;4.85;;
36191;SDS011;22233;42.708;23.360;2024-02-21T12:40:48;5.65;;;4.88;;
36191;SDS011;22233;42.708;23.360;2024-02-21T12:43:14;8.55;;;4.60;;
36191;SDS011;22233;42.708;23.360;2024-02-21T12:45:40;8.43;;;5.43;;
36191;SDS011;22233;42.708;23.360;2024-02-21T12:48:05;8.10;;;5.93;;
36191;SDS011;22233;42.708;23.360;2024-02-21T12:50:31;6.72;;;5.50;;
36191;SDS011;22233;42.708;23.360;2024-02-21T12:52:57;10.13;;;6.38;;
36191;SDS011;22233;42.708;23.360;2024-02-21T12:55:23;11.10;;;6.60;;
36191;SDS011;22233;42.708;23.360;2024-02-21T12:57:49;8.10;;;6.68;;
36191;SDS011;22233;42.708;23.360;2024-02-21T13:00:14;9.25;;;7.63;;
36191;SDS011;22233;42.708;23.360;2024-02-21T13:02:40;9.38;;;7.80;;
36191;SDS011;22233;42.708;23.360;2024-02-21T13:05:06;9.30;;;7.18;;
36191;SDS011;22233;42.708;23.360;2024-02-21T13:07:32;10.20;;;7.97;;
36191;SDS011;22233;42.708;23.360;2024-02-21T13:09:58;10.75;;;7.78;;
36191;SDS011;22233;42.708;23.360;2024-02-21T13:12:24;8.50;;;6.90;;
36191;SDS011;22233;42.708;23.360;2024-02-21T13:14:51;8.10;;;5.82;;
36191;SDS011;22233;42.708;23.360;2024-02-21T13:17:16;9.52;;;6.88;;
36191;SDS011;22233;42.708;23.360;2024-02-21T13:19:42;10.63;;;8.27;;
36191;SDS011;22233;42.708;23.360;2024-02-21T13:22:07;11.13;;;8.93;;
36191;SDS011;22233;42.708;23.360;2024-02-21T13:24:33;12.80;;;9.48;;
36191;SDS011;22233;42.708;23.360;2024-02-21T13:26:58;10.60;;;7.60;;
36191;SDS011;22233;42.708;23.360;2024-02-21T13:29:24;8.55;;;5.55;;
36191;SDS011;22233;42.708;23.360;2024-02-21T13:31:49;6.50;;;4.78;;
36191;SDS011;22233;42.708;23.360;2024-02-21T13:34:15;7.95;;;5.38;;
36191;SDS011;22233;42.708;23.360;2024-02-21T13:36:42;7.78;;;4.97;;
36191;SDS011;22233;42.708;23.360;2024-02-21T13:39:07;7.90;;;5.50;;
36191;SDS011;22233;42.708;23.360;2024-02-21T13:41:33;8.30;;;4.93;;
36191;SDS011;22233;42.708;23.360;2024-02-21T13:43:59;5.30;;;4.72;;
36191;SDS011;22233;42.708;23.360;2024-02-21T13:46:25;5.88;;;4.93;;
36191;SDS011;22233;42.708;23.360;2024-02-21T13:48:52;7.38;;;5.53;;
36191;SDS011;22233;42.708;23.360;2024-02-21T13:51:29;8.10;;;5.60;;
36191;SDS011;22233;42.708;23.360;2024-02-21T13:53:54;9.52;;;6.60;;
36191;SDS011;22233;42.708;23.360;2024-02-21T13:56:20;7.00;;;5.95;;
36191;SDS011;22233;42.708;23.360;2024-02-21T13:58:45;7.22;;;5.80;;
36191;SDS011;22233;42.708;23.360;2024-02-21T14:01:10;8.18;;;6.22;;
36191;SDS011;22233;42.708;23.360;2024-02-21T14:03:36;9.35;;;7.18;;
36191;SDS011;22233;42.708;23.360;2024-02-21T14:06:01;8.75;;;6.80;;
36191;SDS011;22233;42.708;23.360;2024-02-21T14:08:26;13.77;;;7.03;;
36191;SDS011;22233;42.708;23.360;2024-02-21T14:10:52;8.68;;;6.22;;
36191;SDS011;22233;42.708;23.360;2024-02-21T14:13:18;5.68;;;5.05;;
36191;SDS011;22233;42.708;23.360;2024-02-21T14:15:43;7.57;;;5.75;;
36191;SDS011;22233;42.708;23.360;2024-02-21T14:20:36;6.05;;;4.95;;
36191;SDS011;22233;42.708;23.360;2024-02-21T14:23:02;7.03;;;5.18;;
36191;SDS011;22233;42.708;23.360;2024-02-21T14:25:27;7.30;;;5.63;;
36191;SDS011;22233;42.708;23.360;2024-02-21T14:27:53;8.32;;;5.95;;
36191;SDS011;22233;42.708;23.360;2024-02-21T14:30:18;7.40;;;5.80;;
36191;SDS011;22233;42.708;23.360;2024-02-21T14:32:44;7.43;;;5.53;;
36191;SDS011;22233;42.708;23.360;2024-02-21T14:35:10;7.60;;;6.07;;
36191;SDS011;22233;42.708;23.360;2024-02-21T14:37:36;9.35;;;6.70;;
36191;SDS011;22233;42.708;23.360;2024-02-21T14:40:02;8.43;;;6.35;;
36191;SDS011;22233;42.708;23.360;2024-02-21T14:42:28;7.63;;;5.90;;
36191;SDS011;22233;42.708;23.360;2024-02-21T14:44:53;7.75;;;6.15;;